Bookmark and Share
Track history (hours):
 

Mermaid Express

Last reported at 2014-Apr-20 03:34 UTC. Time now 2014-Apr-20 11:37 UTC.
Position N 51°32' W 010°20'.

Length 179 m; draft 11.5 m.

Type: Tanker. MMSI: 352866000.

NotesDate/timePositionNaut miles runAvg speedWind from/ knotsBaromVisibWave heightAir tempDewpointWater temp
2014-Apr-20 03:34N 51°32' W 010°20'1212.2
2014-Apr-20 02:34N 51°32' W 010°01'1410.0
2014-Apr-20 01:09N 51°39' W 009°40'4 7.0
2014-Apr-20 00:34N 51°41' W 009°35'2 1.8
2014-Apr-19 23:33N 51°42' W 009°32'0 0.0
2014-Apr-19 22:33N 51°42' W 009°32'0 0.0
2014-Apr-19 21:33N 51°42' W 009°32'0 0.0
2014-Apr-19 20:30N 51°42' W 009°32'0 0.1
2014-Apr-19 19:33N 51°42' W 009°32'0 0.0
2014-Apr-19 18:18N 51°42' W 009°32'0 0.0
2014-Apr-19 17:33N 51°42' W 009°32'0 0.0
2014-Apr-19 16:33N 51°42' W 009°32'0 0.0
2014-Apr-19 15:33N 51°42' W 009°32'0 0.0
2014-Apr-19 14:33N 51°42' W 009°32'0 0.1
2014-Apr-19 13:30N 51°42' W 009°32'0 0.1
2014-Apr-19 12:33N 51°42' W 009°32'0 0.0
2014-Apr-19 11:33N 51°42' W 009°32'0 0.0
2014-Apr-19 10:33N 51°42' W 009°32'0 0.0
2014-Apr-19 09:33N 51°42' W 009°32'0 0.0
2014-Apr-19 08:33N 51°42' W 009°32'0 0.0
2014-Apr-19 07:33N 51°42' W 009°32'0 0.0
2014-Apr-19 06:33N 51°42' W 009°32'0 0.0
2014-Apr-19 05:33N 51°42' W 009°32'0 0.0
2014-Apr-19 04:33N 51°42' W 009°32'0 0.2
2014-Apr-19 03:33N 51°42' W 009°32'0 0.0
2014-Apr-19 02:33N 51°42' W 009°32'0 0.1
2014-Apr-19 01:33N 51°42' W 009°32'0 0.0
2014-Apr-19 00:33N 51°42' W 009°32'0 0.0
2014-Apr-18 23:33N 51°42' W 009°32'0 0.0
2014-Apr-18 22:33N 51°42' W 009°32'0 0.0
2014-Apr-18 21:33N 51°42' W 009°32'0 0.0
2014-Apr-18 20:33N 51°42' W 009°32'0 0.1
2014-Apr-18 19:33N 51°42' W 009°32'0 0.0
2014-Apr-18 13:09N 51°42' W 009°32'0 0.0
2014-Apr-18 12:33N 51°42' W 009°32'2 1.9
2014-Apr-18 11:33N 51°41' W 009°35'4 3.9
2014-Apr-18 10:32N 51°39' W 009°41'8 7.9
2014-Apr-18 09:33N 51°35' W 009°51'8 7.9
2014-Apr-18 08:33N 51°28' W 009°56'8 8.2
2014-Apr-18 07:33N 51°19' W 009°58'1110.5
2014-Apr-18 06:33N 51°09' W 009°59'1211.5
2014-Apr-18 05:33N 50°57' W 009°58'13911.6
2014-Apr-17 17:33N 48°39' W 009°55'61612.1
2014-Apr-15 14:33N 38°22' W 009°51'13 6.4
2014-Apr-15 12:31N 38°10' W 009°47'1212.7
2014-Apr-15 11:33N 37°58' W 009°43'1212.4
2014-Apr-15 10:33N 37°46' W 009°40'1212.0
2014-Apr-15 09:32N 37°34' W 009°37'1211.9
2014-Apr-15 08:33N 37°22' W 009°34'1312.2
2014-Apr-15 07:31N 37°10' W 009°30'20511.4
2014-Apr-14 13:34N 35°60' W 005°30'11 5.2
2014-Apr-14 11:32N 36°07' W 005°21'0 0.1
2014-Apr-14 10:32N 36°07' W 005°21'0 0.1
2014-Apr-14 07:32N 36°07' W 005°22'0 0.1
2014-Apr-14 06:32N 36°07' W 005°22'0 0.1
2014-Apr-14 05:32N 36°07' W 005°22'0 0.0
2014-Apr-13 22:32N 36°07' W 005°21'0 0.1
2014-Apr-13 21:32N 36°07' W 005°22'0 0.2
2014-Apr-13 20:32N 36°07' W 005°22'0 0.0
2014-Apr-13 19:32N 36°07' W 005°22'0 0.1
2014-Apr-13 18:32N 36°07' W 005°22'0 0.1
2014-Apr-13 17:32N 36°07' W 005°22'1 1.0
2014-Apr-13 16:34N 36°06' W 005°22'8 7.9
2014-Apr-13 15:33N 35°59' W 005°25'  

Dump ship's entire track history

sailing weather and tide predictions

Mermaid Express — H9PV — position and weather